Impacts METAR Board INFO
IDs:

KDCA - Washington/National, VA, US

Updated at: 1706 UTC 20 Jan 2018
Potential Impact None Slight Moderate High
Time20/05Z 20/06Z 20/07Z 20/08Z 20/09Z 20/10Z 20/11Z 20/12Z 20/13Z 20/14Z 20/15Z 20/16Z 20/17Z
VIS10 10 10 10 10 10 10 10 10 10 10 10 10
CIG-- -- -- -- -- -- -- -- -- -- -- -- --
CoverCLRCLRCLRCLRCLRCLRCLRFEWSCTSCTSCTSCTSCT
FltCatVFRVFRVFRVFRVFRVFRVFRVFRVFRVFRVFRVFRVFR
WX--------------------------
WDir2000190180220200210200190170170180170
WSpd7 0 4 7 4 3 3 5 5 5 7 7 9
WGst-- -- -- -- -- -- -- -- -- -- -- -- --
Raw hourly METARs
KDCA 200452Z 20007KT 10SM CLR 01/M06 A3004 RMK AO2 SLP172 T00061061 401061039
KDCA 200552Z 00000KT 10SM CLR 01/M04 A3003 RMK AO2 SLP167 T00061044 10056 21006 58008
KDCA 200652Z 19004KT 10SM CLR 00/M07 A3001 RMK AO2 SLP163 T00001067
KDCA 200752Z 18007KT 10SM CLR M01/M06 A3001 RMK AO2 SLP162 T10061056
KDCA 200852Z 22004KT 10SM CLR M01/M06 A3000 RMK AO2 SLP158 T10111061 56009
KDCA 200952Z 20003KT 10SM CLR M01/M07 A3001 RMK AO2 SLP160 T10061067
KDCA 201052Z 21003KT 10SM CLR M02/M06 A3001 RMK AO2 SLP161 T10171056
KDCA 201152Z 20005KT 10SM FEW250 M02/M06 A3001 RMK AO2 SLP162 T10221056 10011 21022 51004
KDCA 201252Z 19005KT 10SM SCT250 M02/M05 A3003 RMK AO2 SLP167 T10171050
KDCA 201352Z 17005KT 10SM SCT250 01/M05 A3004 RMK AO2 SLP173 T00111050
KDCA 201452Z 17007KT 10SM SCT250 03/M06 A3005 RMK AO2 SLP175 T00331056 51013
KDCA 201552Z 18007KT 10SM FEW150 SCT250 07/M07 A3004 RMK AO2 SLP172 T00671067
KDCA 201652Z 17009KT 10SM FEW150 SCT250 09/M07 A3002 RMK AO2 SLP164 T00891067